sensor_id;sensor_type;location;lat;lon;timestamp;pressure;altitude;pressure_sealevel;temperature;humidity
69780;BME280;57052;55.602;38.096;2023-05-20T00:01:26;101308.66;;;12.98;48.37
69780;BME280;57052;55.602;38.096;2023-05-20T00:03:52;101307.09;;;13.02;47.92
69780;BME280;57052;55.602;38.096;2023-05-20T00:06:18;101304.09;;;13.03;48.20
69780;BME280;57052;55.602;38.096;2023-05-20T00:08:43;101300.91;;;13.06;48.14
69780;BME280;57052;55.602;38.096;2023-05-20T00:11:09;101286.41;;;13.01;47.97
69780;BME280;57052;55.602;38.096;2023-05-20T00:13:34;101286.47;;;13.06;47.80
69780;BME280;57052;55.602;38.096;2023-05-20T00:16:00;101295.00;;;13.14;47.67
69780;BME280;57052;55.602;38.096;2023-05-20T00:18:26;101296.38;;;13.17;47.88
69780;BME280;57052;55.602;38.096;2023-05-20T00:20:52;101299.66;;;13.19;47.52
69780;BME280;57052;55.602;38.096;2023-05-20T00:23:19;101294.75;;;13.21;47.49
69780;BME280;57052;55.602;38.096;2023-05-20T00:25:44;101296.41;;;13.22;47.60
69780;BME280;57052;55.602;38.096;2023-05-20T00:28:10;101294.25;;;13.24;47.45
69780;BME280;57052;55.602;38.096;2023-05-20T00:30:39;101281.41;;;13.14;48.13
69780;BME280;57052;55.602;38.096;2023-05-20T00:33:05;101293.72;;;13.27;47.39
69780;BME280;57052;55.602;38.096;2023-05-20T00:35:31;101303.25;;;13.29;47.70
69780;BME280;57052;55.602;38.096;2023-05-20T00:37:57;101297.56;;;13.31;47.59
69780;BME280;57052;55.602;38.096;2023-05-20T00:40:23;101298.66;;;13.30;47.28
69780;BME280;57052;55.602;38.096;2023-05-20T00:42:49;101285.03;;;13.25;47.32
69780;BME280;57052;55.602;38.096;2023-05-20T00:45:15;101295.66;;;13.31;47.88
69780;BME280;57052;55.602;38.096;2023-05-20T00:47:41;101299.19;;;13.32;47.43
69780;BME280;57052;55.602;38.096;2023-05-20T00:50:08;101288.31;;;13.32;47.87
69780;BME280;57052;55.602;38.096;2023-05-20T00:52:35;101283.13;;;13.30;47.49
69780;BME280;57052;55.602;38.096;2023-05-20T00:55:02;101290.53;;;13.35;47.47
69780;BME280;57052;55.602;38.096;2023-05-20T00:57:31;101291.63;;;13.39;47.84
69780;BME280;57052;55.602;38.096;2023-05-20T00:59:56;101296.00;;;13.40;47.42
69780;BME280;57052;55.602;38.096;2023-05-20T01:02:23;101286.72;;;13.36;47.57
69780;BME280;57052;55.602;38.096;2023-05-20T01:04:49;101292.72;;;13.43;47.58
69780;BME280;57052;55.602;38.096;2023-05-20T01:07:16;101296.81;;;13.45;48.03
69780;BME280;57052;55.602;38.096;2023-05-20T01:09:42;101286.78;;;13.46;47.79
69780;BME280;57052;55.602;38.096;2023-05-20T01:12:15;101282.16;;;13.46;47.56
69780;BME280;57052;55.602;38.096;2023-05-20T01:15:06;101287.84;;;13.40;48.45
69780;BME280;57052;55.602;38.096;2023-05-20T01:17:37;101288.94;;;13.44;48.08
69780;BME280;57052;55.602;38.096;2023-05-20T01:20:05;101286.75;;;13.41;48.07
69780;BME280;57052;55.602;38.096;2023-05-20T01:22:57;101286.75;;;13.41;47.79
69780;BME280;57052;55.602;38.096;2023-05-20T01:25:22;101244.72;;;13.17;47.52
69780;BME280;57052;55.602;38.096;2023-05-20T01:27:49;101283.78;;;13.42;47.65
69780;BME280;57052;55.602;38.096;2023-05-20T01:30:17;101284.84;;;13.41;47.63
69780;BME280;57052;55.602;38.096;2023-05-20T01:32:47;101287.84;;;13.40;48.41
69780;BME280;57052;55.602;38.096;2023-05-20T01:35:16;101282.41;;;13.40;47.97
69780;BME280;57052;55.602;38.096;2023-05-20T01:37:43;101292.50;;;13.44;48.03
69780;BME280;57052;55.602;38.096;2023-05-20T01:40:11;101291.94;;;13.42;48.07
69780;BME280;57052;55.602;38.096;2023-05-20T01:42:38;101285.66;;;13.42;47.96
69780;BME280;57052;55.602;38.096;2023-05-20T01:45:06;101290.28;;;13.41;47.97
69780;BME280;57052;55.602;38.096;2023-05-20T01:47:32;101297.94;;;13.44;47.64
69780;BME280;57052;55.602;38.096;2023-05-20T01:49:57;101299.31;;;13.47;48.20
69780;BME280;57052;55.602;38.096;2023-05-20T01:52:23;101298.78;;;13.50;47.98
69780;BME280;57052;55.602;38.096;2023-05-20T01:54:49;101290.88;;;13.48;48.11
69780;BME280;57052;55.602;38.096;2023-05-20T01:57:21;101285.16;;;13.45;48.25
69780;BME280;57052;55.602;38.096;2023-05-20T01:59:47;101294.44;;;13.54;48.06
69780;BME280;57052;55.602;38.096;2023-05-20T02:02:13;101293.34;;;13.50;47.73
69780;BME280;57052;55.602;38.096;2023-05-20T02:04:39;101286.22;;;13.44;48.37
69780;BME280;57052;55.602;38.096;2023-05-20T02:07:06;101302.31;;;13.50;47.84
69780;BME280;57052;55.602;38.096;2023-05-20T02:09:32;101296.06;;;13.50;48.13
69780;BME280;57052;55.602;38.096;2023-05-20T02:11:58;101289.22;;;13.42;48.05
69780;BME280;57052;55.602;38.096;2023-05-20T02:14:24;101288.69;;;13.50;48.49
69780;BME280;57052;55.602;38.096;2023-05-20T02:16:49;101279.44;;;13.46;48.54
69780;BME280;57052;55.602;38.096;2023-05-20T02:19:15;101291.19;;;13.52;48.72
69780;BME280;57052;55.602;38.096;2023-05-20T02:21:48;101288.47;;;13.52;48.43
69780;BME280;57052;55.602;38.096;2023-05-20T02:24:14;101279.78;;;13.55;48.50
69780;BME280;57052;55.602;38.096;2023-05-20T02:26:40;101276.47;;;13.53;48.76
69780;BME280;57052;55.602;38.096;2023-05-20T02:29:06;101278.44;;;13.58;48.41
69780;BME280;57052;55.602;38.096;2023-05-20T02:31:32;101280.03;;;13.59;48.59
69780;BME280;57052;55.602;38.096;2023-05-20T02:33:58;101279.53;;;13.62;48.50
69780;BME280;57052;55.602;38.096;2023-05-20T02:36:23;101281.66;;;13.55;48.66
69780;BME280;57052;55.602;38.096;2023-05-20T02:38:49;101283.88;;;13.58;48.84
69780;BME280;57052;55.602;38.096;2023-05-20T02:41:15;101286.31;;;13.59;48.81
69780;BME280;57052;55.602;38.096;2023-05-20T02:43:41;101293.97;;;13.62;49.25
69780;BME280;57052;55.602;38.096;2023-05-20T02:46:08;101288.50;;;13.62;49.35
69780;BME280;57052;55.602;38.096;2023-05-20T02:48:34;101285.25;;;13.60;48.94
69780;BME280;57052;55.602;38.096;2023-05-20T02:51:00;101293.13;;;13.62;49.10
69780;BME280;57052;55.602;38.096;2023-05-20T02:53:25;101290.94;;;13.59;49.27
69780;BME280;57052;55.602;38.096;2023-05-20T02:55:51;101293.66;;;13.59;49.44
69780;BME280;57052;55.602;38.096;2023-05-20T02:58:17;101303.19;;;13.61;49.15
69780;BME280;57052;55.602;38.096;2023-05-20T03:00:42;101306.47;;;13.63;49.52
69780;BME280;57052;55.602;38.096;2023-05-20T03:03:08;101308.94;;;13.65;49.43
69780;BME280;57052;55.602;38.096;2023-05-20T03:05:36;101280.53;;;13.50;49.74
69780;BME280;57052;55.602;38.096;2023-05-20T03:08:07;101306.50;;;13.68;49.89
69780;BME280;57052;55.602;38.096;2023-05-20T03:10:35;101269.66;;;13.50;49.88
69780;BME280;57052;55.602;38.096;2023-05-20T03:13:01;101301.34;;;13.72;49.96
69780;BME280;57052;55.602;38.096;2023-05-20T03:15:26;101301.63;;;13.70;49.81
69780;BME280;57052;55.602;38.096;2023-05-20T03:17:52;101305.97;;;13.71;49.82
69780;BME280;57052;55.602;38.096;2023-05-20T03:20:18;101309.22;;;13.73;49.75
69780;BME280;57052;55.602;38.096;2023-05-20T03:22:44;101308.16;;;13.74;50.01
69780;BME280;57052;55.602;38.096;2023-05-20T03:25:10;101279.22;;;13.58;49.67
69780;BME280;57052;55.602;38.096;2023-05-20T03:27:36;101310.41;;;13.87;49.69
69780;BME280;57052;55.602;38.096;2023-05-20T03:30:03;101305.78;;;13.88;50.09
69780;BME280;57052;55.602;38.096;2023-05-20T03:32:29;101303.88;;;13.88;49.63
69780;BME280;57052;55.602;38.096;2023-05-20T03:34:55;101305.25;;;13.91;49.78
69780;BME280;57052;55.602;38.096;2023-05-20T03:37:22;101270.34;;;13.73;49.55
69780;BME280;57052;55.602;38.096;2023-05-20T03:39:48;101297.09;;;13.96;49.67
69780;BME280;57052;55.602;38.096;2023-05-20T03:42:14;101295.22;;;13.96;50.27
69780;BME280;57052;55.602;38.096;2023-05-20T03:44:40;101304.75;;;13.99;50.02
69780;BME280;57052;55.602;38.096;2023-05-20T03:47:06;101299.59;;;14.02;49.92
69780;BME280;57052;55.602;38.096;2023-05-20T03:49:31;101286.50;;;13.99;49.97
69780;BME280;57052;55.602;38.096;2023-05-20T03:51:57;101292.00;;;14.09;50.14
69780;BME280;57052;55.602;38.096;2023-05-20T03:54:22;101287.63;;;14.08;50.26
69780;BME280;57052;55.602;38.096;2023-05-20T03:56:48;101294.47;;;14.16;50.39
69780;BME280;57052;55.602;38.096;2023-05-20T03:59:14;101291.50;;;14.18;50.09
69780;BME280;57052;55.602;38.096;2023-05-20T04:01:39;101295.84;;;14.19;50.09
69780;BME280;57052;55.602;38.096;2023-05-20T04:04:05;101291.22;;;14.19;49.77
69780;BME280;57052;55.602;38.096;2023-05-20T04:06:31;101299.38;;;14.19;49.97
69780;BME280;57052;55.602;38.096;2023-05-20T04:08:57;101289.03;;;14.21;49.79
69780;BME280;57052;55.602;38.096;2023-05-20T04:11:23;101285.50;;;14.26;50.38
69780;BME280;57052;55.602;38.096;2023-05-20T04:13:49;101288.84;;;14.33;50.01
69780;BME280;57052;55.602;38.096;2023-05-20T04:16:15;101295.66;;;14.35;50.30
69780;BME280;57052;55.602;38.096;2023-05-20T04:18:40;101291.00;;;14.36;49.62
69780;BME280;57052;55.602;38.096;2023-05-20T04:21:06;101283.41;;;14.38;50.18
69780;BME280;57052;55.602;38.096;2023-05-20T04:23:32;101280.41;;;14.39;50.13
69780;BME280;57052;55.602;38.096;2023-05-20T04:25:58;101273.28;;;14.33;49.70
69780;BME280;57052;55.602;38.096;2023-05-20T04:28:27;101282.31;;;14.39;50.05
69780;BME280;57052;55.602;38.096;2023-05-20T04:30:59;101265.97;;;14.39;50.65
69780;BME280;57052;55.602;38.096;2023-05-20T04:33:27;101280.72;;;14.48;49.83
69780;BME280;57052;55.602;38.096;2023-05-20T04:35:52;101279.59;;;14.54;49.70
69780;BME280;57052;55.602;38.096;2023-05-20T04:38:25;101287.78;;;14.59;50.70
69780;BME280;57052;55.602;38.096;2023-05-20T04:40:59;101280.72;;;14.58;50.65
69780;BME280;57052;55.602;38.096;2023-05-20T04:43:27;101286.44;;;14.61;50.10
69780;BME280;57052;55.602;38.096;2023-05-20T04:45:56;101289.44;;;14.65;49.92
69780;BME280;57052;55.602;38.096;2023-05-20T04:48:22;101290.53;;;14.69;49.99
69780;BME280;57052;55.602;38.096;2023-05-20T04:50:48;101288.88;;;14.73;49.95
69780;BME280;57052;55.602;38.096;2023-05-20T04:53:15;101288.88;;;14.73;49.88
69780;BME280;57052;55.602;38.096;2023-05-20T04:55:41;101291.38;;;14.80;49.74
69780;BME280;57052;55.602;38.096;2023-05-20T04:58:08;101282.66;;;14.77;49.89
69780;BME280;57052;55.602;38.096;2023-05-20T05:00:45;101288.09;;;14.88;50.28
69780;BME280;57052;55.602;38.096;2023-05-20T05:03:11;101287.53;;;14.91;49.80
69780;BME280;57052;55.602;38.096;2023-05-20T05:05:40;101285.38;;;14.93;49.82
69780;BME280;57052;55.602;38.096;2023-05-20T05:08:07;101284.03;;;14.95;49.63
69780;BME280;57052;55.602;38.096;2023-05-20T05:10:34;101280.19;;;14.96;49.58
69780;BME280;57052;55.602;38.096;2023-05-20T05:13:00;101282.38;;;15.04;49.77
69780;BME280;57052;55.602;38.096;2023-05-20T05:15:27;101282.38;;;15.09;49.94
69780;BME280;57052;55.602;38.096;2023-05-20T05:17:53;101277.75;;;15.15;49.61
69780;BME280;57052;55.602;38.096;2023-05-20T05:20:19;101271.44;;;15.19;49.46
69780;BME280;57052;55.602;38.096;2023-05-20T05:22:44;101273.09;;;15.25;49.18
69780;BME280;57052;55.602;38.096;2023-05-20T05:25:11;101276.59;;;15.31;49.64
69780;BME280;57052;55.602;38.096;2023-05-20T05:27:37;101269.53;;;15.35;49.45
69780;BME280;57052;55.602;38.096;2023-05-20T05:30:05;101266.25;;;15.38;49.19
69780;BME280;57052;55.602;38.096;2023-05-20T05:32:32;101262.41;;;15.39;49.73
69780;BME280;57052;55.602;38.096;2023-05-20T05:34:58;101266.25;;;15.43;49.48
69780;BME280;57052;55.602;38.096;2023-05-20T05:37:24;101258.34;;;15.47;49.21
69780;BME280;57052;55.602;38.096;2023-05-20T05:39:50;101273.31;;;15.54;49.36
69780;BME280;57052;55.602;38.096;2023-05-20T05:42:15;101270.06;;;15.57;48.99
69780;BME280;57052;55.602;38.096;2023-05-20T05:44:41;101266.47;;;15.62;48.95
69780;BME280;57052;55.602;38.096;2023-05-20T05:47:07;101265.09;;;15.64;48.98
69780;BME280;57052;55.602;38.096;2023-05-20T05:49:33;101271.63;;;15.68;49.13
69780;BME280;57052;55.602;38.096;2023-05-20T05:51:59;101261.00;;;15.72;49.09
69780;BME280;57052;55.602;38.096;2023-05-20T05:54:25;101263.16;;;15.75;48.77
69780;BME280;57052;55.602;38.096;2023-05-20T05:56:51;101258.25;;;15.77;48.65
69780;BME280;57052;55.602;38.096;2023-05-20T05:59:18;101265.31;;;15.88;48.68
69780;BME280;57052;55.602;38.096;2023-05-20T06:01:43;101256.53;;;15.91;48.56
69780;BME280;57052;55.602;38.096;2023-05-20T06:04:09;101266.63;;;16.00;48.61
69780;BME280;57052;55.602;38.096;2023-05-20T06:06:35;101255.41;;;16.02;48.38
69780;BME280;57052;55.602;38.096;2023-05-20T06:09:02;101255.09;;;16.09;48.45
69780;BME280;57052;55.602;38.096;2023-05-20T06:11:28;101261.63;;;16.18;48.28
69780;BME280;57052;55.602;38.096;2023-05-20T06:13:54;101262.97;;;16.20;48.23
69780;BME280;57052;55.602;38.096;2023-05-20T06:16:20;101273.03;;;16.25;48.28
69780;BME280;57052;55.602;38.096;2023-05-20T06:18:46;101267.56;;;16.30;47.99
69780;BME280;57052;55.602;38.096;2023-05-20T06:21:11;101267.81;;;16.33;48.22
69780;BME280;57052;55.602;38.096;2023-05-20T06:23:37;101277.06;;;16.37;47.95
69780;BME280;57052;55.602;38.096;2023-05-20T06:26:03;101280.88;;;16.41;47.86
69780;BME280;57052;55.602;38.096;2023-05-20T06:28:29;101275.66;;;16.45;47.69
69780;BME280;57052;55.602;38.096;2023-05-20T06:30:55;101257.38;;;16.40;47.78
69780;BME280;57052;55.602;38.096;2023-05-20T06:33:22;101278.06;;;16.51;47.68
69780;BME280;57052;55.602;38.096;2023-05-20T06:35:55;101264.97;;;16.53;47.70
69780;BME280;57052;55.602;38.096;2023-05-20T06:38:21;101263.88;;;16.49;47.35
69780;BME280;57052;55.602;38.096;2023-05-20T06:40:47;101262.22;;;16.48;47.35
69780;BME280;57052;55.602;38.096;2023-05-20T06:43:16;101273.72;;;16.55;47.43
69780;BME280;57052;55.602;38.096;2023-05-20T06:45:42;101267.13;;;16.56;47.53
69780;BME280;57052;55.602;38.096;2023-05-20T06:48:09;101267.38;;;16.60;47.42
69780;BME280;57052;55.602;38.096;2023-05-20T06:50:35;101274.44;;;16.66;47.49
69780;BME280;57052;55.602;38.096;2023-05-20T06:53:01;101264.06;;;16.68;47.41
69780;BME280;57052;55.602;38.096;2023-05-20T06:55:27;101268.38;;;16.74;47.02
69780;BME280;57052;55.602;38.096;2023-05-20T06:57:53;101263.16;;;16.78;47.19
69780;BME280;57052;55.602;38.096;2023-05-20T07:00:18;101265.84;;;16.83;47.06
69780;BME280;57052;55.602;38.096;2023-05-20T07:02:44;101268.56;;;16.88;46.95
69780;BME280;57052;55.602;38.096;2023-05-20T07:05:10;101252.72;;;16.85;46.63
69780;BME280;57052;55.602;38.096;2023-05-20T07:07:37;101258.69;;;16.87;46.66
69780;BME280;57052;55.602;38.096;2023-05-20T07:10:04;101246.97;;;16.81;46.60
69780;BME280;57052;55.602;38.096;2023-05-20T07:12:31;101268.22;;;16.94;46.66
69780;BME280;57052;55.602;38.096;2023-05-20T07:14:57;101270.84;;;17.04;46.59
69780;BME280;57052;55.602;38.096;2023-05-20T07:17:23;101267.22;;;17.14;46.43
69780;BME280;57052;55.602;38.096;2023-05-20T07:19:49;101262.28;;;17.16;46.20
69780;BME280;57052;55.602;38.096;2023-05-20T07:22:15;101257.00;;;17.24;46.06
69780;BME280;57052;55.602;38.096;2023-05-20T07:24:41;101259.69;;;17.29;46.06
69780;BME280;57052;55.602;38.096;2023-05-20T07:27:07;101253.84;;;17.36;45.84
69780;BME280;57052;55.602;38.096;2023-05-20T07:29:34;101257.09;;;17.43;45.67
69780;BME280;57052;55.602;38.096;2023-05-20T07:32:00;101259.22;;;17.46;45.62
69780;BME280;57052;55.602;38.096;2023-05-20T07:34:25;101260.03;;;17.47;45.53
69780;BME280;57052;55.602;38.096;2023-05-20T07:36:51;101266.34;;;17.47;45.27
69780;BME280;57052;55.602;38.096;2023-05-20T07:39:18;101251.88;;;17.42;45.08
69780;BME280;57052;55.602;38.096;2023-05-20T07:41:44;101259.75;;;17.53;45.07
69780;BME280;57052;55.602;38.096;2023-05-20T07:44:10;101265.97;;;17.59;44.94
69780;BME280;57052;55.602;38.096;2023-05-20T07:46:37;101259.34;;;17.65;44.58
69780;BME280;57052;55.602;38.096;2023-05-20T07:49:04;101251.06;;;17.70;44.30
69780;BME280;57052;55.602;38.096;2023-05-20T07:51:30;101245.59;;;17.70;44.28
69780;BME280;57052;55.602;38.096;2023-05-20T07:53:56;101244.75;;;17.69;44.17
69780;BME280;57052;55.602;38.096;2023-05-20T07:56:22;101257.81;;;17.77;43.72
69780;BME280;57052;55.602;38.096;2023-05-20T07:58:53;101254.56;;;17.75;43.12
69780;BME280;57052;55.602;38.096;2023-05-20T08:01:19;101252.03;;;17.79;43.65
69780;BME280;57052;55.602;38.096;2023-05-20T08:03:45;101241.69;;;17.76;43.80
69780;BME280;57052;55.602;38.096;2023-05-20T08:06:11;101246.78;;;17.82;43.70
69780;BME280;57052;55.602;38.096;2023-05-20T08:08:36;101246.22;;;17.85;43.17
69780;BME280;57052;55.602;38.096;2023-05-20T08:11:04;101243.69;;;17.89;42.81
69780;BME280;57052;55.602;38.096;2023-05-20T08:13:30;101242.84;;;17.93;42.87
69780;BME280;57052;55.602;38.096;2023-05-20T08:15:56;101246.31;;;17.99;43.11
69780;BME280;57052;55.602;38.096;2023-05-20T08:18:22;101247.56;;;18.07;42.53
69780;BME280;57052;55.602;38.096;2023-05-20T08:20:47;101233.59;;;18.08;41.99
69780;BME280;57052;55.602;38.096;2023-05-20T08:23:13;101244.63;;;18.22;41.47
69780;BME280;57052;55.602;38.096;2023-05-20T08:25:39;101234.09;;;18.29;41.36
69780;BME280;57052;55.602;38.096;2023-05-20T08:28:04;101234.56;;;18.36;40.96
69780;BME280;57052;55.602;38.096;2023-05-20T08:30:32;101233.16;;;18.38;40.73
69780;BME280;57052;55.602;38.096;2023-05-20T08:32:59;101232.84;;;18.40;40.85
69780;BME280;57052;55.602;38.096;2023-05-20T08:35:24;101233.16;;;18.38;40.39
69780;BME280;57052;55.602;38.096;2023-05-20T08:37:51;101230.69;;;18.37;40.43
69780;BME280;57052;55.602;38.096;2023-05-20T08:40:19;101230.94;;;18.40;40.17
69780;BME280;57052;55.602;38.096;2023-05-20T08:42:47;101219.81;;;18.32;39.72
69780;BME280;57052;55.602;38.096;2023-05-20T08:45:17;101225.97;;;18.42;39.70
69780;BME280;57052;55.602;38.096;2023-05-20T08:47:43;101236.06;;;18.47;40.12
69780;BME280;57052;55.602;38.096;2023-05-20T08:50:10;101233.56;;;18.50;40.04
69780;BME280;57052;55.602;38.096;2023-05-20T08:52:37;101239.53;;;18.52;40.12
69780;BME280;57052;55.602;38.096;2023-05-20T08:55:06;101233.66;;;18.59;39.70
69780;BME280;57052;55.602;38.096;2023-05-20T08:57:34;101234.06;;;18.71;39.62
69780;BME280;57052;55.602;38.096;2023-05-20T09:00:01;101236.72;;;18.76;39.37
69780;BME280;57052;55.602;38.096;2023-05-20T09:02:36;101228.03;;;18.69;39.05
69780;BME280;57052;55.602;38.096;2023-05-20T09:05:03;101221.69;;;18.87;39.49
69780;BME280;57052;55.602;38.096;2023-05-20T09:07:29;101228.41;;;18.95;39.43
69780;BME280;57052;55.602;38.096;2023-05-20T09:09:56;101231.91;;;19.00;39.22
69780;BME280;57052;55.602;38.096;2023-05-20T09:12:21;101233.00;;;18.99;39.06
69780;BME280;57052;55.602;38.096;2023-05-20T09:14:48;101241.66;;;19.06;38.99
69780;BME280;57052;55.602;38.096;2023-05-20T09:17:14;101230.38;;;19.08;38.94
69780;BME280;57052;55.602;38.096;2023-05-20T09:19:39;101227.94;;;19.06;38.89
69780;BME280;57052;55.602;38.096;2023-05-20T09:22:06;101233.72;;;19.05;39.36
69780;BME280;57052;55.602;38.096;2023-05-20T09:24:31;101237.50;;;19.09;39.13
69780;BME280;57052;55.602;38.096;2023-05-20T09:26:57;101239.63;;;19.12;39.41
69780;BME280;57052;55.602;38.096;2023-05-20T09:29:24;101241.78;;;19.15;39.14
69780;BME280;57052;55.602;38.096;2023-05-20T09:31:51;101237.13;;;19.15;38.90
69780;BME280;57052;55.602;38.096;2023-05-20T09:34:19;101244.53;;;19.15;38.64
69780;BME280;57052;55.602;38.096;2023-05-20T09:36:48;101243.72;;;19.14;38.21
69780;BME280;57052;55.602;38.096;2023-05-20T09:39:16;101250.25;;;19.18;38.75
69780;BME280;57052;55.602;38.096;2023-05-20T09:42:05;101252.25;;;19.13;37.49
69780;BME280;57052;55.602;38.096;2023-05-20T09:44:32;101227.34;;;19.09;38.57
69780;BME280;57052;55.602;38.096;2023-05-20T09:46:59;101238.22;;;19.14;38.39
69780;BME280;57052;55.602;38.096;2023-05-20T09:49:27;101248.28;;;19.19;38.04
69780;BME280;57052;55.602;38.096;2023-05-20T09:51:54;101245.84;;;19.17;38.45
69780;BME280;57052;55.602;38.096;2023-05-20T09:54:21;101238.81;;;19.11;38.32
69780;BME280;57052;55.602;38.096;2023-05-20T09:56:49;101252.75;;;19.15;38.14
69780;BME280;57052;55.602;38.096;2023-05-20T09:59:15;101255.81;;;19.13;38.03
69780;BME280;57052;55.602;38.096;2023-05-20T10:01:42;101251.44;;;19.12;38.18
69780;BME280;57052;55.602;38.096;2023-05-20T10:04:09;101264.94;;;19.09;38.26
69780;BME280;57052;55.602;38.096;2023-05-20T10:17:50;101273.03;;;18.49;41.65
69780;BME280;57052;55.602;38.096;2023-05-20T10:20:11;101281.00;;;18.51;41.43
69780;BME280;57052;55.602;38.096;2023-05-20T10:22:37;101267.97;;;18.38;41.84
69780;BME280;57052;55.602;38.096;2023-05-20T10:25:06;101275.16;;;18.34;42.29
69780;BME280;57052;55.602;38.096;2023-05-20T10:27:45;101282.28;;;18.35;42.71
69780;BME280;57052;55.602;38.096;2023-05-20T10:30:21;101283.16;;;18.30;42.09
69780;BME280;57052;55.602;38.096;2023-05-20T10:32:54;101269.81;;;18.24;41.59
69780;BME280;57052;55.602;38.096;2023-05-20T10:35:23;101278.13;;;18.37;41.34
69780;BME280;57052;55.602;38.096;2023-05-20T10:37:54;101279.69;;;18.43;41.95
69780;BME280;57052;55.602;38.096;2023-05-20T10:40:21;101274.69;;;18.50;41.83
69780;BME280;57052;55.602;38.096;2023-05-20T10:42:47;101274.59;;;18.55;41.44
69780;BME280;57052;55.602;38.096;2023-05-20T10:45:27;101274.22;;;18.62;41.69
69780;BME280;57052;55.602;38.096;2023-05-20T10:47:54;101280.06;;;18.74;41.25
69780;BME280;57052;55.602;38.096;2023-05-20T10:50:41;101274.56;;;18.74;40.61
69780;BME280;57052;55.602;38.096;2023-05-20T10:53:11;101281.13;;;18.78;40.94
69780;BME280;57052;55.602;38.096;2023-05-20T10:55:38;101276.66;;;18.82;40.73
69780;BME280;57052;55.602;38.096;2023-05-20T10:58:05;101277.16;;;18.84;40.63
69780;BME280;57052;55.602;38.096;2023-05-20T11:00:33;101268.22;;;18.79;40.66
69780;BME280;57052;55.602;38.096;2023-05-20T11:03:00;101281.03;;;18.83;40.80
69780;BME280;57052;55.602;38.096;2023-05-20T11:05:26;101272.88;;;18.78;40.64
69780;BME280;57052;55.602;38.096;2023-05-20T11:08:03;101288.84;;;18.76;40.70
69780;BME280;57052;55.602;38.096;2023-05-20T11:10:29;101274.38;;;18.71;40.45
69780;BME280;57052;55.602;38.096;2023-05-20T11:12:56;101288.09;;;18.71;40.46
69780;BME280;57052;55.602;38.096;2023-05-20T11:15:22;101280.69;;;18.71;40.35
69780;BME280;57052;55.602;38.096;2023-05-20T11:18:01;101285.34;;;18.71;40.23
69780;BME280;57052;55.602;38.096;2023-05-20T11:20:26;101275.28;;;18.66;40.28
69780;BME280;57052;55.602;38.096;2023-05-20T11:22:53;101291.66;;;18.71;40.23
69780;BME280;57052;55.602;38.096;2023-05-20T11:25:19;101281.78;;;18.70;40.16
69780;BME280;57052;55.602;38.096;2023-05-20T11:27:46;101287.84;;;18.67;40.47
69780;BME280;57052;55.602;38.096;2023-05-20T11:30:12;101283.50;;;18.66;40.48
69780;BME280;57052;55.602;38.096;2023-05-20T11:32:43;101279.44;;;18.64;40.41
69780;BME280;57052;55.602;38.096;2023-05-20T11:35:21;101278.88;;;18.62;40.42
69780;BME280;57052;55.602;38.096;2023-05-20T11:38:00;101286.00;;;18.63;40.20
69780;BME280;57052;55.602;38.096;2023-05-20T11:40:27;101291.41;;;18.68;40.24
69780;BME280;57052;55.602;38.096;2023-05-20T11:42:58;101284.00;;;18.68;40.37
69780;BME280;57052;55.602;38.096;2023-05-20T11:45:24;101289.19;;;18.70;40.38
69780;BME280;57052;55.602;38.096;2023-05-20T11:48:02;101287.03;;;18.67;39.74
69780;BME280;57052;55.602;38.096;2023-05-20T11:50:36;101297.22;;;18.66;39.57
69780;BME280;57052;55.602;38.096;2023-05-20T11:53:18;101289.00;;;18.66;39.46
69780;BME280;57052;55.602;38.096;2023-05-20T11:55:46;101281.63;;;18.62;39.69
69780;BME280;57052;55.602;38.096;2023-05-20T11:58:21;101285.69;;;18.64;38.88
69780;BME280;57052;55.602;38.096;2023-05-20T12:00:47;101281.03;;;18.65;39.31
69780;BME280;57052;55.602;38.096;2023-05-20T12:03:13;101290.09;;;18.65;39.07
69780;BME280;57052;55.602;38.096;2023-05-20T12:05:39;101285.19;;;18.62;38.85
69780;BME280;57052;55.602;38.096;2023-05-20T12:08:05;101285.19;;;18.62;38.54
69780;BME280;57052;55.602;38.096;2023-05-20T12:10:31;101269.94;;;18.56;38.49
69780;BME280;57052;55.602;38.096;2023-05-20T12:12:57;101279.69;;;18.62;38.83
69780;BME280;57052;55.602;38.096;2023-05-20T12:15:23;101262.31;;;18.53;38.12
69780;BME280;57052;55.602;38.096;2023-05-20T12:17:51;101274.81;;;18.59;37.76
69780;BME280;57052;55.602;38.096;2023-05-20T12:20:19;101272.88;;;18.60;37.74
69780;BME280;57052;55.602;38.096;2023-05-20T12:22:45;101272.06;;;18.59;38.02
69780;BME280;57052;55.602;38.096;2023-05-20T12:25:12;101271.28;;;18.59;37.62
69780;BME280;57052;55.602;38.096;2023-05-20T12:27:41;101275.34;;;18.61;37.47
69780;BME280;57052;55.602;38.096;2023-05-20T12:30:08;101268.72;;;18.62;37.36
69780;BME280;57052;55.602;38.096;2023-05-20T12:32:37;101285.34;;;18.71;37.44
69780;BME280;57052;55.602;38.096;2023-05-20T12:35:03;101272.38;;;18.76;37.37
69780;BME280;57052;55.602;38.096;2023-05-20T12:37:31;101273.09;;;18.82;37.35
69780;BME280;57052;55.602;38.096;2023-05-20T12:39:57;101271.31;;;18.91;37.42
69780;BME280;57052;55.602;38.096;2023-05-20T12:42:23;101258.59;;;18.95;36.88
69780;BME280;57052;55.602;38.096;2023-05-20T12:44:49;101263.09;;;19.04;36.72
69780;BME280;57052;55.602;38.096;2023-05-20T12:47:15;101266.56;;;19.10;36.10
69780;BME280;57052;55.602;38.096;2023-05-20T12:49:40;101259.66;;;19.12;35.98
69780;BME280;57052;55.602;38.096;2023-05-20T12:52:06;101259.28;;;19.19;35.56